Time;durP1;ratioP1;P1;durP2;ratioP2;P2;SDS_P1;SDS_P2;PMS_P1;PMS_P2;Temp;Humidity;BMP_temperature;BMP_pressure;BME280_temperature;BME280_humidity;BME280_pressure;Samples;Min_cycle;Max_cycle;Signal;HPM_P1;HPM_P2
2023/01/22 00:01:38;;;;;;;24.80;11.55;;;;;;;;;;5050699;28;20056;-72
2023/01/22 00:04:04;;;;;;;26.23;12.60;;;;;;;;;;5050735;28;20045;-72
2023/01/22 00:06:30;;;;;;;23.67;11.70;;;;;;;;;;5050084;28;20037;-72
2023/01/22 00:08:57;;;;;;;27.75;12.52;;;;;;;;;;5034262;28;20036;-72
2023/01/22 00:11:23;;;;;;;27.13;12.75;;;;;;;;;;5050522;28;20159;-72
2023/01/22 00:13:49;;;;;;;23.73;11.55;;;;;;;;;;5050461;28;20174;-72
2023/01/22 00:16:16;;;;;;;32.05;13.40;;;;;;;;;;5033787;28;20047;-72
2023/01/22 00:18:43;;;;;;;26.67;12.63;;;;;;;;;;5050541;28;20072;-72
2023/01/22 00:21:11;;;;;;;23.65;12.07;;;;;;;;;;5034345;28;20482;-73
2023/01/22 00:23:38;;;;;;;25.23;12.40;;;;;;;;;;5050445;28;20049;-72
2023/01/22 00:26:05;;;;;;;25.17;11.90;;;;;;;;;;5050739;28;20044;-72
2023/01/22 00:28:32;;;;;;;24.35;12.40;;;;;;;;;;5050219;28;20110;-72
2023/01/22 00:30:59;;;;;;;30.85;11.68;;;;;;;;;;5050610;28;20076;-72
2023/01/22 00:33:26;;;;;;;29.70;12.85;;;;;;;;;;5053981;28;20079;-72
2023/01/22 00:35:52;;;;;;;24.50;11.70;;;;;;;;;;5054530;28;20108;-72
2023/01/22 00:38:18;;;;;;;24.58;11.75;;;;;;;;;;5055629;28;20036;-72
2023/01/22 00:40:44;;;;;;;25.45;11.25;;;;;;;;;;5055813;28;20045;-72
2023/01/22 00:43:10;;;;;;;24.02;11.45;;;;;;;;;;5054205;28;20049;-72
2023/01/22 00:45:36;;;;;;;24.38;11.82;;;;;;;;;;5037848;28;20053;-72
2023/01/22 00:48:02;;;;;;;23.92;11.55;;;;;;;;;;5054513;28;20124;-72
2023/01/22 00:50:28;;;;;;;24.77;11.95;;;;;;;;;;5053897;28;20172;-72
2023/01/22 00:52:54;;;;;;;22.00;10.40;;;;;;;;;;5055462;28;20098;-72
2023/01/22 00:55:20;;;;;;;23.80;10.82;;;;;;;;;;5053793;28;20048;-72
2023/01/22 00:57:46;;;;;;;23.35;10.30;;;;;;;;;;5053988;28;20039;-72
2023/01/22 01:00:16;;;;;;;22.48;10.75;;;;;;;;;;5037354;28;20048;-72
2023/01/22 01:05:28;;;;;;;22.50;10.63;;;;;;;;;;5053717;28;20048;-73
2023/01/22 01:07:54;;;;;;;21.73;10.60;;;;;;;;;;5054040;28;20043;-72
2023/01/22 01:10:20;;;;;;;23.98;11.00;;;;;;;;;;5086941;28;20437;-72
2023/01/22 01:12:46;;;;;;;27.08;11.52;;;;;;;;;;5054033;28;20493;-72
2023/01/22 01:15:12;;;;;;;25.65;11.73;;;;;;;;;;5053481;28;20044;-72
2023/01/22 01:17:38;;;;;;;26.95;11.38;;;;;;;;;;5054563;28;20041;-72
2023/01/22 01:20:04;;;;;;;24.42;11.52;;;;;;;;;;5053508;28;20049;-72
2023/01/22 01:22:30;;;;;;;25.98;12.63;;;;;;;;;;5053219;28;20055;-73
2023/01/22 01:24:56;;;;;;;27.67;12.13;;;;;;;;;;5053520;28;20045;-72
2023/01/22 01:27:22;;;;;;;25.75;10.98;;;;;;;;;;5052995;28;20049;-73
2023/01/22 01:29:48;;;;;;;25.67;11.80;;;;;;;;;;5053295;28;20045;-73
2023/01/22 01:32:14;;;;;;;26.02;12.20;;;;;;;;;;5053592;28;20375;-73
2023/01/22 01:34:40;;;;;;;24.13;11.20;;;;;;;;;;5053221;28;20486;-73
2023/01/22 01:37:07;;;;;;;23.80;10.80;;;;;;;;;;5053507;28;20542;-73
2023/01/22 01:39:33;;;;;;;24.52;12.02;;;;;;;;;;5052780;28;20045;-72
2023/01/22 01:41:59;;;;;;;24.63;12.45;;;;;;;;;;5053269;28;20036;-73
2023/01/22 01:44:26;;;;;;;22.65;11.23;;;;;;;;;;5052001;28;20044;-73
2023/01/22 01:46:53;;;;;;;24.10;11.00;;;;;;;;;;5053648;28;20131;-73
2023/01/22 01:49:43;;;;;;;22.75;11.18;;;;;;;;;;5052562;28;20099;-73
2023/01/22 01:52:11;;;;;;;22.33;11.75;;;;;;;;;;5053109;28;20036;-73
2023/01/22 01:54:38;;;;;;;22.80;11.73;;;;;;;;;;5069146;28;20063;-73
2023/01/22 01:57:08;;;;;;;24.73;10.65;;;;;;;;;;5053185;28;20047;-73
2023/01/22 01:59:34;;;;;;;25.65;10.90;;;;;;;;;;5052322;28;20102;-73
2023/01/22 02:02:01;;;;;;;24.83;11.65;;;;;;;;;;5052964;28;20090;-73
2023/01/22 02:04:28;;;;;;;24.88;10.43;;;;;;;;;;5052412;28;20124;-73
2023/01/22 02:06:54;;;;;;;23.95;10.75;;;;;;;;;;5054292;28;20032;-73
2023/01/22 02:09:20;;;;;;;27.15;11.98;;;;;;;;;;5052596;28;20045;-73
2023/01/22 02:11:49;;;;;;;25.58;11.63;;;;;;;;;;5052522;28;20450;-73
2023/01/22 02:14:20;;;;;;;27.75;10.90;;;;;;;;;;5052364;28;20116;-73
2023/01/22 02:16:46;;;;;;;28.17;12.00;;;;;;;;;;5052189;28;20397;-72
2023/01/22 02:19:12;;;;;;;30.80;12.32;;;;;;;;;;5052325;28;20122;-73
2023/01/22 02:21:40;;;;;;;26.67;11.27;;;;;;;;;;5052367;28;20443;-73
2023/01/22 02:24:07;;;;;;;28.70;11.55;;;;;;;;;;5036048;28;20090;-73
2023/01/22 02:26:33;;;;;;;26.63;12.52;;;;;;;;;;5035357;28;20045;-73
2023/01/22 02:29:00;;;;;;;26.13;10.73;;;;;;;;;;5035605;28;20037;-73
2023/01/22 02:31:26;;;;;;;31.85;12.27;;;;;;;;;;5051738;28;20072;-73
2023/01/22 02:33:52;;;;;;;26.58;11.65;;;;;;;;;;5035597;28;20137;-73
2023/01/22 02:36:18;;;;;;;30.50;12.60;;;;;;;;;;5052274;28;20401;-73
2023/01/22 02:38:44;;;;;;;28.92;11.50;;;;;;;;;;5051793;28;20076;-73
2023/01/22 02:41:10;;;;;;;29.40;11.75;;;;;;;;;;5053357;28;20036;-72
2023/01/22 02:43:37;;;;;;;31.38;12.00;;;;;;;;;;5051958;28;20414;-72
2023/01/22 02:46:03;;;;;;;33.08;12.27;;;;;;;;;;5053253;28;20087;-72
2023/01/22 02:48:29;;;;;;;29.45;12.55;;;;;;;;;;5035345;28;20048;-73
2023/01/22 02:50:55;;;;;;;29.80;12.52;;;;;;;;;;5035193;28;20067;-72
2023/01/22 02:53:21;;;;;;;27.23;12.10;;;;;;;;;;5051897;28;20037;-72
2023/01/22 02:55:48;;;;;;;24.35;11.98;;;;;;;;;;5033986;28;20445;-72
2023/01/22 02:58:16;;;;;;;27.55;12.88;;;;;;;;;;5052139;28;20041;-72
2023/01/22 03:00:42;;;;;;;26.38;12.57;;;;;;;;;;5051199;28;20119;-72
2023/01/22 03:03:14;;;;;;;31.92;12.77;;;;;;;;;;5041183;28;20041;-73
2023/01/22 03:05:50;;;;;;;29.15;12.88;;;;;;;;;;5051722;28;20045;-73
2023/01/22 03:08:16;;;;;;;29.15;12.57;;;;;;;;;;5051679;28;20129;-73
2023/01/22 03:10:42;;;;;;;27.90;12.00;;;;;;;;;;5034587;28;20122;-73
2023/01/22 03:21:22;;;;;;;30.10;12.38;;;;;;;;;;5051369;28;20056;-73
2023/01/22 03:23:50;;;;;;;30.60;11.98;;;;;;;;;;5051021;28;20045;-72
2023/01/22 03:26:16;;;;;;;30.80;12.23;;;;;;;;;;5051213;28;20052;-73
2023/01/22 03:28:42;;;;;;;30.42;11.68;;;;;;;;;;5050903;28;20045;-73
2023/01/22 03:31:08;;;;;;;30.80;12.30;;;;;;;;;;5051140;28;20478;-73
2023/01/22 03:33:35;;;;;;;30.67;12.02;;;;;;;;;;5052127;28;20044;-73
2023/01/22 03:36:05;;;;;;;29.27;11.98;;;;;;;;;;5018280;28;20033;-72
2023/01/22 03:38:31;;;;;;;31.48;13.15;;;;;;;;;;5051456;28;20481;-72
2023/01/22 03:41:05;;;;;;;34.28;12.93;;;;;;;;;;5050696;28;20119;-72
2023/01/22 03:43:32;;;;;;;32.97;13.88;;;;;;;;;;5051102;28;20407;-72
2023/01/22 03:46:24;;;;;;;29.98;13.05;;;;;;;;;;5051718;28;20033;-72
2023/01/22 03:48:51;;;;;;;28.98;13.27;;;;;;;;;;5047860;28;20050;-72
2023/01/22 03:51:17;;;;;;;33.28;13.02;;;;;;;;;;5049203;28;20049;-72
2023/01/22 03:53:44;;;;;;;35.08;12.95;;;;;;;;;;5050507;28;20041;-73
2023/01/22 03:56:11;;;;;;;34.05;13.60;;;;;;;;;;5050493;28;20037;-72
2023/01/22 03:58:37;;;;;;;35.20;13.20;;;;;;;;;;5050345;28;20037;-73
2023/01/22 04:01:11;;;;;;;32.75;13.32;;;;;;;;;;5050717;28;20068;-72
2023/01/22 04:03:37;;;;;;;31.77;12.65;;;;;;;;;;5033616;28;20049;-73
2023/01/22 04:06:04;;;;;;;29.73;12.23;;;;;;;;;;5051049;28;20041;-73
2023/01/22 04:08:32;;;;;;;28.33;11.77;;;;;;;;;;5055175;28;20458;-73
2023/01/22 04:10:58;;;;;;;30.00;12.32;;;;;;;;;;5054245;28;20095;-73
2023/01/22 04:13:25;;;;;;;31.38;12.63;;;;;;;;;;5057589;28;20109;-73
2023/01/22 04:15:51;;;;;;;32.58;12.77;;;;;;;;;;5074243;28;20120;-73
2023/01/22 04:18:17;;;;;;;25.63;11.57;;;;;;;;;;5074656;28;20040;-72
2023/01/22 04:20:44;;;;;;;34.67;12.63;;;;;;;;;;5057645;28;20052;-73
2023/01/22 04:23:10;;;;;;;33.25;12.32;;;;;;;;;;5075060;28;20471;-73
2023/01/22 04:25:36;;;;;;;31.08;12.20;;;;;;;;;;5062038;28;20147;-73
2023/01/22 04:28:03;;;;;;;26.33;11.70;;;;;;;;;;5053950;28;20087;-73
2023/01/22 04:30:29;;;;;;;25.98;11.50;;;;;;;;;;5054593;28;20521;-73
2023/01/22 04:32:56;;;;;;;30.55;12.52;;;;;;;;;;5037189;28;20045;-73
2023/01/22 04:35:22;;;;;;;31.40;11.95;;;;;;;;;;5054660;28;20049;-73
2023/01/22 04:37:48;;;;;;;28.15;11.40;;;;;;;;;;5067678;28;20072;-72
2023/01/22 04:40:14;;;;;;;26.48;10.98;;;;;;;;;;5057723;28;20081;-73
2023/01/22 04:42:40;;;;;;;32.10;12.52;;;;;;;;;;5074500;28;20117;-73
2023/01/22 04:45:07;;;;;;;30.25;13.10;;;;;;;;;;5075461;28;20036;-73
2023/01/22 04:47:33;;;;;;;30.58;13.07;;;;;;;;;;5057934;28;20041;-73
2023/01/22 04:49:59;;;;;;;26.58;11.88;;;;;;;;;;5073655;28;20087;-73
2023/01/22 04:52:25;;;;;;;31.48;12.52;;;;;;;;;;5075835;28;20039;-73
2023/01/22 04:54:52;;;;;;;25.92;11.73;;;;;;;;;;5075125;28;20071;-73
2023/01/22 04:57:18;;;;;;;27.58;11.30;;;;;;;;;;5074278;28;20539;-73
2023/01/22 04:59:44;;;;;;;25.75;11.10;;;;;;;;;;5044684;28;20076;-73
2023/01/22 05:02:10;;;;;;;24.90;11.25;;;;;;;;;;5038860;28;20045;-73
2023/01/22 05:04:36;;;;;;;22.70;10.88;;;;;;;;;;5044350;28;20051;-73
2023/01/22 05:07:02;;;;;;;24.13;10.93;;;;;;;;;;5052893;28;20057;-73
2023/01/22 05:09:28;;;;;;;22.45;9.85;;;;;;;;;;5053851;28;20041;-73
2023/01/22 05:11:55;;;;;;;23.52;10.00;;;;;;;;;;5054706;28;20069;-73
2023/01/22 05:14:21;;;;;;;24.90;9.85;;;;;;;;;;5054117;28;20037;-73
2023/01/22 05:16:48;;;;;;;20.40;9.32;;;;;;;;;;5054855;28;20047;-73
2023/01/22 05:19:14;;;;;;;17.13;8.88;;;;;;;;;;5019456;28;20053;-73
2023/01/22 05:21:40;;;;;;;22.38;8.95;;;;;;;;;;5053977;28;20409;-73
2023/01/22 05:24:08;;;;;;;17.33;8.38;;;;;;;;;;5053314;28;20040;-73
2023/01/22 05:26:34;;;;;;;17.50;8.05;;;;;;;;;;5053609;28;20040;-74
2023/01/22 05:29:00;;;;;;;18.05;8.52;;;;;;;;;;5052931;28;20048;-73
2023/01/22 05:31:26;;;;;;;17.58;8.20;;;;;;;;;;5053483;28;20073;-73
2023/01/22 05:33:52;;;;;;;15.68;7.47;;;;;;;;;;5020336;28;20037;-73
2023/01/22 05:36:18;;;;;;;16.15;7.68;;;;;;;;;;5037028;28;20508;-73
2023/01/22 05:38:45;;;;;;;13.35;6.60;;;;;;;;;;5054538;28;20402;-73
2023/01/22 05:41:11;;;;;;;17.77;7.47;;;;;;;;;;5053165;28;20394;-73
2023/01/22 05:43:38;;;;;;;12.95;6.65;;;;;;;;;;5053529;28;20448;-73
2023/01/22 05:46:04;;;;;;;16.42;7.25;;;;;;;;;;5053101;28;20041;-72
2023/01/22 05:48:33;;;;;;;12.70;6.30;;;;;;;;;;5036711;28;20037;-73
2023/01/22 05:51:03;;;;;;;13.25;6.55;;;;;;;;;;5052683;28;20048;-73
2023/01/22 05:53:29;;;;;;;12.07;6.28;;;;;;;;;;5053182;28;20053;-73
2023/01/22 05:55:59;;;;;;;15.38;7.15;;;;;;;;;;5052989;28;20045;-72
2023/01/22 05:58:25;;;;;;;12.85;6.90;;;;;;;;;;5052999;28;20532;-73
2023/01/22 06:00:52;;;;;;;11.50;6.63;;;;;;;;;;5053006;28;20517;-73
2023/01/22 06:03:18;;;;;;;13.88;6.57;;;;;;;;;;5052781;28;20041;-73
2023/01/22 06:05:44;;;;;;;11.95;6.18;;;;;;;;;;5052989;28;20044;-72
2023/01/22 06:08:10;;;;;;;12.65;6.50;;;;;;;;;;5052284;28;20131;-73
2023/01/22 06:10:36;;;;;;;12.93;6.63;;;;;;;;;;5052705;28;20137;-72
2023/01/22 06:13:02;;;;;;;11.73;6.07;;;;;;;;;;5052249;28;20098;-72
2023/01/22 06:15:28;;;;;;;13.38;6.00;;;;;;;;;;5086133;28;20037;-72
2023/01/22 06:17:59;;;;;;;12.95;6.60;;;;;;;;;;5052171;28;20073;-73
2023/01/22 06:20:25;;;;;;;12.38;6.28;;;;;;;;;;5052227;28;20057;-72
2023/01/22 06:22:51;;;;;;;10.60;5.75;;;;;;;;;;5052395;28;20052;-72
2023/01/22 06:25:17;;;;;;;12.63;5.97;;;;;;;;;;5069229;28;20045;-73
2023/01/22 06:27:43;;;;;;;13.93;6.75;;;;;;;;;;5073635;28;20040;-72
2023/01/22 06:30:10;;;;;;;11.82;5.70;;;;;;;;;;5070795;28;20048;-72
2023/01/22 06:32:36;;;;;;;12.98;5.95;;;;;;;;;;5059443;28;20170;-73
2023/01/22 06:35:02;;;;;;;11.38;6.15;;;;;;;;;;5067468;28;20482;-73
2023/01/22 06:37:28;;;;;;;12.95;5.88;;;;;;;;;;5071910;28;20060;-73
2023/01/22 06:39:54;;;;;;;11.18;6.00;;;;;;;;;;5072146;28;20040;-73
2023/01/22 06:42:20;;;;;;;10.23;5.90;;;;;;;;;;5055509;28;20044;-74
2023/01/22 06:44:46;;;;;;;12.52;6.13;;;;;;;;;;5072135;28;20036;-72
2023/01/22 06:47:12;;;;;;;11.75;5.90;;;;;;;;;;5055021;28;20093;-73
2023/01/22 06:49:38;;;;;;;13.85;5.63;;;;;;;;;;5055270;28;20078;-73
2023/01/22 06:52:07;;;;;;;13.15;6.00;;;;;;;;;;5045908;28;20402;-73
2023/01/22 06:54:33;;;;;;;11.10;6.03;;;;;;;;;;5068870;28;20048;-73
2023/01/22 06:56:59;;;;;;;11.48;5.75;;;;;;;;;;5071716;28;20040;-73
2023/01/22 06:59:26;;;;;;;12.77;6.05;;;;;;;;;;5045327;28;20041;-73
2023/01/22 07:01:52;;;;;;;11.23;5.88;;;;;;;;;;5051688;28;20048;-73
2023/01/22 07:04:18;;;;;;;10.02;5.55;;;;;;;;;;5051339;28;20125;-73
2023/01/22 07:06:44;;;;;;;11.00;6.18;;;;;;;;;;5051893;28;20044;-72
2023/01/22 07:09:10;;;;;;;13.88;6.40;;;;;;;;;;5051156;28;20037;-73
2023/01/22 07:11:36;;;;;;;12.13;5.80;;;;;;;;;;5051629;28;20037;-73
2023/01/22 07:14:02;;;;;;;11.05;6.03;;;;;;;;;;5051260;28;20032;-73
2023/01/22 07:16:28;;;;;;;15.07;6.18;;;;;;;;;;5051864;28;20075;-73
2023/01/22 07:18:54;;;;;;;11.23;5.47;;;;;;;;;;5052286;28;20045;-73
2023/01/22 07:21:20;;;;;;;16.80;6.00;;;;;;;;;;5050873;28;20096;-73
2023/01/22 07:23:46;;;;;;;12.05;6.10;;;;;;;;;;5051202;28;20155;-73
2023/01/22 07:26:13;;;;;;;12.25;5.88;;;;;;;;;;5050924;28;20497;-73
2023/01/22 07:28:39;;;;;;;11.98;5.70;;;;;;;;;;5051133;28;20051;-72
2023/01/22 07:31:08;;;;;;;13.82;6.15;;;;;;;;;;5050722;28;20041;-72
2023/01/22 07:33:35;;;;;;;10.27;5.82;;;;;;;;;;5051489;28;20049;-72
2023/01/22 07:36:01;;;;;;;13.55;5.82;;;;;;;;;;5051160;28;20036;-73
2023/01/22 07:38:27;;;;;;;10.68;5.93;;;;;;;;;;5051328;28;20498;-73
2023/01/22 07:40:54;;;;;;;10.90;5.53;;;;;;;;;;5050428;28;20045;-73
2023/01/22 07:43:20;;;;;;;13.77;6.13;;;;;;;;;;5034399;28;20041;-73
2023/01/22 07:45:46;;;;;;;13.15;6.20;;;;;;;;;;5051277;28;20417;-73
2023/01/22 07:48:12;;;;;;;12.32;6.10;;;;;;;;;;5050531;28;20126;-73
2023/01/22 07:50:39;;;;;;;12.48;6.57;;;;;;;;;;5050966;28;20041;-73
2023/01/22 07:53:06;;;;;;;8.90;5.93;;;;;;;;;;5036358;28;20033;-73
2023/01/22 07:55:32;;;;;;;12.75;6.25;;;;;;;;;;5034608;28;20588;-73
2023/01/22 07:57:59;;;;;;;14.13;6.72;;;;;;;;;;5051061;28;20134;-73
2023/01/22 08:00:25;;;;;;;10.88;6.40;;;;;;;;;;5050460;28;20036;-73
2023/01/22 08:02:52;;;;;;;11.98;6.60;;;;;;;;;;5051223;28;20044;-73
2023/01/22 08:05:18;;;;;;;13.52;6.53;;;;;;;;;;5050289;28;20444;-73
2023/01/22 08:07:44;;;;;;;12.77;6.70;;;;;;;;;;5050885;28;20040;-73
2023/01/22 08:10:10;;;;;;;13.05;6.30;;;;;;;;;;5050062;28;20049;-73
2023/01/22 08:12:40;;;;;;;11.43;6.97;;;;;;;;;;5034428;28;20486;-73
2023/01/22 08:15:06;;;;;;;11.23;6.10;;;;;;;;;;5051768;28;20064;-72
2023/01/22 08:17:32;;;;;;;14.52;7.15;;;;;;;;;;5050328;28;20041;-72
2023/01/22 08:19:58;;;;;;;15.50;7.22;;;;;;;;;;5033830;28;20063;-73
2023/01/22 08:22:27;;;;;;;11.80;6.40;;;;;;;;;;5050314;28;20048;-73
2023/01/22 08:24:53;;;;;;;11.55;7.07;;;;;;;;;;5050519;28;20037;-73
2023/01/22 08:27:22;;;;;;;11.68;6.65;;;;;;;;;;5059300;28;20120;-73
2023/01/22 08:29:51;;;;;;;12.32;7.07;;;;;;;;;;5070191;28;20045;-73
2023/01/22 08:32:18;;;;;;;14.40;6.28;;;;;;;;;;5070442;28;20398;-73
2023/01/22 08:34:44;;;;;;;11.90;6.85;;;;;;;;;;5059431;28;20062;-73
2023/01/22 08:37:13;;;;;;;13.13;6.90;;;;;;;;;;5069432;28;20070;-73
2023/01/22 08:39:39;;;;;;;11.40;6.68;;;;;;;;;;5070556;28;20052;-73
2023/01/22 08:42:05;;;;;;;12.32;6.97;;;;;;;;;;5070520;28;20456;-73
2023/01/22 08:44:31;;;;;;;17.38;7.70;;;;;;;;;;5053649;28;20121;-73
2023/01/22 08:47:00;;;;;;;14.23;7.15;;;;;;;;;;5070468;28;20409;-73
2023/01/22 08:49:29;;;;;;;14.18;6.63;;;;;;;;;;5071050;28;20076;-73
2023/01/22 08:51:58;;;;;;;13.57;7.30;;;;;;;;;;5070625;28;20048;-73
2023/01/22 08:54:33;;;;;;;16.80;7.53;;;;;;;;;;5074290;28;20040;-73
2023/01/22 08:56:59;;;;;;;13.68;7.18;;;;;;;;;;5074284;28;20386;-74
2023/01/22 08:59:25;;;;;;;15.00;8.18;;;;;;;;;;5063941;28;20045;-74
2023/01/22 09:01:58;;;;;;;13.15;7.78;;;;;;;;;;5054327;28;20047;-74
2023/01/22 09:05:03;;;;;;;14.68;7.75;;;;;;;;;;5053699;28;20155;-74
2023/01/22 09:07:22;;;;;;;14.40;8.20;;;;;;;;;;5038500;28;20134;-74
2023/01/22 09:09:49;;;;;;;13.82;7.57;;;;;;;;;;5053611;28;20049;-74
2023/01/22 09:12:18;;;;;;;12.70;8.02;;;;;;;;;;5020878;28;20029;-73
2023/01/22 09:14:44;;;;;;;12.50;7.45;;;;;;;;;;5053838;28;20124;-73
2023/01/22 09:17:10;;;;;;;14.85;8.13;;;;;;;;;;5053792;28;20132;-73
2023/01/22 09:19:36;;;;;;;13.40;8.30;;;;;;;;;;5020188;28;20057;-73
2023/01/22 09:22:19;;;;;;;14.30;8.43;;;;;;;;;;5037540;28;20052;-73
2023/01/22 09:24:48;;;;;;;11.68;7.68;;;;;;;;;;5042443;28;20052;-73
2023/01/22 09:27:14;;;;;;;15.63;7.50;;;;;;;;;;5052778;28;20075;-74
2023/01/22 09:29:56;;;;;;;;;;;;;;;;;;;;;
2023/01/22 09:32:29;;;;;;;12.82;8.00;;;;;;;;;;5053715;28;20048;-73
2023/01/22 09:34:55;;;;;;;13.38;8.15;;;;;;;;;;5053534;28;20037;-73
2023/01/22 09:37:21;;;;;;;12.93;7.60;;;;;;;;;;5053189;28;20520;-73
2023/01/22 09:39:48;;;;;;;12.43;8.15;;;;;;;;;;5053213;28;20119;-73
2023/01/22 09:42:30;;;;;;;13.45;8.50;;;;;;;;;;5053557;28;20045;-73
2023/01/22 09:44:59;;;;;;;14.75;8.40;;;;;;;;;;5053177;28;20036;-73
2023/01/22 09:47:28;;;;;;;13.55;7.90;;;;;;;;;;5053186;28;20045;-73
2023/01/22 09:50:03;;;;;;;13.23;8.15;;;;;;;;;;5053114;28;20529;-73
2023/01/22 09:52:31;;;;;;;12.52;7.95;;;;;;;;;;5052640;28;20041;-73
2023/01/22 09:54:58;;;;;;;13.88;8.57;;;;;;;;;;5052874;28;20120;-73
2023/01/22 09:57:26;;;;;;;14.32;8.20;;;;;;;;;;5036198;28;20091;-73
2023/01/22 09:59:55;;;;;;;15.02;8.05;;;;;;;;;;5053129;28;20062;-73
2023/01/22 10:02:57;;;;;;;16.02;8.43;;;;;;;;;;5052746;28;20041;-73
2023/01/22 10:05:29;;;;;;;13.25;7.93;;;;;;;;;;4995090;28;20049;-73
2023/01/22 10:08:16;;;;;;;12.75;7.97;;;;;;;;;;5036290;28;20091;-73
2023/01/22 10:10:42;;;;;;;16.45;8.60;;;;;;;;;;5052200;28;20049;-73
2023/01/22 10:13:14;;;;;;;13.70;7.75;;;;;;;;;;5052833;28;20033;-73
2023/01/22 10:15:41;;;;;;;12.57;7.80;;;;;;;;;;5035949;28;20123;-73
2023/01/22 10:18:20;;;;;;;13.63;7.97;;;;;;;;;;5052605;28;20044;-73
2023/01/22 10:20:57;;;;;;;16.13;9.25;;;;;;;;;;5036840;28;20048;-74
2023/01/22 10:23:24;;;;;;;13.20;8.40;;;;;;;;;;5036303;28;20124;-73
2023/01/22 10:26:04;;;;;;;13.55;8.18;;;;;;;;;;5052517;28;20045;-73
2023/01/22 10:28:31;;;;;;;18.58;8.98;;;;;;;;;;5052309;28;20037;-73
2023/01/22 10:31:00;;;;;;;14.68;8.38;;;;;;;;;;5052215;28;20032;-74
2023/01/22 10:33:27;;;;;;;16.98;8.40;;;;;;;;;;5051852;28;20124;-73
2023/01/22 10:35:57;;;;;;;11.80;7.75;;;;;;;;;;5052368;28;20459;-73
2023/01/22 10:38:24;;;;;;;13.38;7.63;;;;;;;;;;5035786;28;20098;-73
2023/01/22 10:40:55;;;;;;;14.95;7.72;;;;;;;;;;5037082;28;20128;-74
2023/01/22 10:43:22;;;;;;;14.35;7.70;;;;;;;;;;5052311;28;20552;-71
2023/01/22 10:45:55;;;;;;;12.13;7.70;;;;;;;;;;5035400;28;20037;-72
2023/01/22 10:48:24;;;;;;;15.02;7.82;;;;;;;;;;5039912;28;20040;-72
2023/01/22 10:51:01;;;;;;;14.65;7.45;;;;;;;;;;5051730;28;20045;-73
2023/01/22 10:53:32;;;;;;;10.95;7.13;;;;;;;;;;5018636;28;20037;-73
2023/01/22 10:55:59;;;;;;;17.30;8.48;;;;;;;;;;5046458;28;20090;-72
2023/01/22 10:58:29;;;;;;;12.15;7.30;;;;;;;;;;5035195;28;20124;-72
2023/01/22 11:00:57;;;;;;;13.80;7.55;;;;;;;;;;5051831;28;20044;-72
2023/01/22 11:03:29;;;;;;;14.30;8.43;;;;;;;;;;5035018;28;20095;-73
2023/01/22 11:05:57;;;;;;;13.43;7.28;;;;;;;;;;5035310;28;20037;-72
2023/01/22 11:08:29;;;;;;;13.60;6.97;;;;;;;;;;5051608;28;20080;-73
2023/01/22 11:10:57;;;;;;;11.93;7.07;;;;;;;;;;5051759;28;20521;-73
2023/01/22 11:13:44;;;;;;;11.45;7.13;;;;;;;;;;5051706;28;20447;-73
2023/01/22 11:16:18;;;;;;;13.07;7.00;;;;;;;;;;5018757;28;20040;-73
2023/01/22 11:19:03;;;;;;;13.20;6.65;;;;;;;;;;5047137;28;20138;-72
2023/01/22 11:21:31;;;;;;;12.25;6.68;;;;;;;;;;5052688;28;20124;-72
2023/01/22 11:24:15;;;;;;;11.73;6.97;;;;;;;;;;5051265;28;20079;-73
2023/01/22 11:26:56;;;;;;;11.45;7.05;;;;;;;;;;5052240;28;20048;-73
2023/01/22 11:29:35;;;;;;;10.55;6.70;;;;;;;;;;5033068;28;20041;-72
2023/01/22 11:32:01;;;;;;;12.75;7.00;;;;;;;;;;5043411;28;20033;-72
2023/01/22 11:34:33;;;;;;;13.55;6.70;;;;;;;;;;5051216;28;20059;-73
2023/01/22 11:37:16;;;;;;;11.57;7.00;;;;;;;;;;5051368;28;20041;-73
2023/01/22 11:40:05;;;;;;;11.25;6.72;;;;;;;;;;5050598;28;20045;-73
2023/01/22 11:42:54;;;;;;;12.02;6.82;;;;;;;;;;5034095;28;20041;-72
2023/01/22 11:45:31;;;;;;;15.70;7.63;;;;;;;;;;5045762;28;20049;-72
2023/01/22 11:48:03;;;;;;;13.20;7.20;;;;;;;;;;5034662;28;20535;-72
2023/01/22 11:50:39;;;;;;;10.82;6.53;;;;;;;;;;5050971;28;20048;-72
2023/01/22 11:53:24;;;;;;;11.27;6.57;;;;;;;;;;5050922;28;20033;-73
2023/01/22 11:55:56;;;;;;;12.70;6.90;;;;;;;;;;5050607;28;20041;-72
2023/01/22 11:58:28;;;;;;;9.80;6.40;;;;;;;;;;5050926;28;20060;-73
2023/01/22 12:01:03;;;;;;;10.52;6.22;;;;;;;;;;5050658;28;20049;-73
2023/01/22 12:03:52;;;;;;;11.18;6.50;;;;;;;;;;5051273;28;20043;-73
2023/01/22 12:06:18;;;;;;;13.48;6.55;;;;;;;;;;5032252;28;20071;-72
2023/01/22 12:08:54;;;;;;;12.75;6.15;;;;;;;;;;5050520;28;20457;-72
2023/01/22 12:11:20;;;;;;;9.90;5.63;;;;;;;;;;5050734;28;20128;-72
2023/01/22 12:13:46;;;;;;;12.10;5.95;;;;;;;;;;5033607;28;20041;-72
2023/01/22 12:16:24;;;;;;;9.77;6.03;;;;;;;;;;5050865;28;20044;-72
2023/01/22 12:18:53;;;;;;;10.30;5.50;;;;;;;;;;5033917;28;20041;-72
2023/01/22 12:21:30;;;;;;;12.73;6.20;;;;;;;;;;5051151;28;20053;-73
2023/01/22 12:24:01;;;;;;;11.82;6.07;;;;;;;;;;5050059;28;20369;-72
2023/01/22 12:26:37;;;;;;;11.55;6.22;;;;;;;;;;5050755;28;20041;-72
2023/01/22 12:29:03;;;;;;;11.02;5.78;;;;;;;;;;5054088;28;20052;-72
2023/01/22 12:31:33;;;;;;;10.05;5.88;;;;;;;;;;5054602;28;20049;-72
2023/01/22 12:34:00;;;;;;;12.30;6.15;;;;;;;;;;5053990;28;20037;-72
2023/01/22 12:36:26;;;;;;;10.50;6.15;;;;;;;;;;5055311;28;20444;-72
2023/01/22 12:38:54;;;;;;;12.45;6.32;;;;;;;;;;5054298;28;20400;-72
2023/01/22 12:41:38;;;;;;;10.73;6.40;;;;;;;;;;5054583;28;20132;-72
2023/01/22 12:44:07;;;;;;;12.00;6.05;;;;;;;;;;5088017;28;20045;-72
2023/01/22 12:46:52;;;;;;;11.75;6.40;;;;;;;;;;5054276;28;20040;-72
2023/01/22 12:49:19;;;;;;;10.35;6.45;;;;;;;;;;5054312;28;20544;-72
2023/01/22 12:51:58;;;;;;;11.02;6.63;;;;;;;;;;5053799;28;20044;-72
2023/01/22 12:54:34;;;;;;;13.05;6.35;;;;;;;;;;5023583;28;20045;-72
2023/01/22 12:57:24;;;;;;;10.50;6.80;;;;;;;;;;5053760;28;20036;-72
2023/01/22 13:00:07;;;;;;;14.38;7.53;;;;;;;;;;5036856;28;20045;-72
2023/01/22 13:02:39;;;;;;;13.57;7.53;;;;;;;;;;5055283;28;20041;-73
2023/01/22 13:05:14;;;;;;;13.77;7.55;;;;;;;;;;5054349;28;20043;-73
2023/01/22 13:07:44;;;;;;;12.88;7.68;;;;;;;;;;5053982;28;20099;-73
2023/01/22 13:10:19;;;;;;;16.13;7.88;;;;;;;;;;5053914;28;20151;-73
2023/01/22 13:12:48;;;;;;;10.83;5.27;;;;;;;;;;5036909;28;20033;-73
2023/01/22 13:15:22;;;;;;;14.10;7.50;;;;;;;;;;5053663;28;20125;-73
2023/01/22 13:18:02;;;;;;;13.68;7.60;;;;;;;;;;5040834;28;20379;-72
2023/01/22 13:20:29;;;;;;;14.50;7.28;;;;;;;;;;5036856;28;20571;-72
2023/01/22 13:22:57;;;;;;;14.73;8.02;;;;;;;;;;5053581;28;20510;-72
2023/01/22 13:25:30;;;;;;;12.23;7.13;;;;;;;;;;5041383;28;20587;-73
2023/01/22 13:27:57;;;;;;;13.30;7.28;;;;;;;;;;5023640;28;20363;-72
2023/01/22 13:30:29;;;;;;;14.70;7.78;;;;;;;;;;5036695;28;20041;-72
2023/01/22 13:33:03;;;;;;;15.52;7.50;;;;;;;;;;5053291;28;20091;-72
2023/01/22 13:35:29;;;;;;;12.80;7.00;;;;;;;;;;5053415;28;20051;-72
2023/01/22 13:37:55;;;;;;;13.27;7.18;;;;;;;;;;5052988;28;20065;-72
2023/01/22 13:40:25;;;;;;;13.90;7.57;;;;;;;;;;5052315;28;20045;-72
2023/01/22 13:42:52;;;;;;;15.20;7.10;;;;;;;;;;5052706;28;20052;-72
2023/01/22 13:45:25;;;;;;;14.18;7.53;;;;;;;;;;5053065;28;20114;-72
2023/01/22 13:47:56;;;;;;;13.23;7.55;;;;;;;;;;5052783;28;20080;-72
2023/01/22 13:50:24;;;;;;;11.82;6.78;;;;;;;;;;5053047;28;20049;-73
2023/01/22 13:52:51;;;;;;;12.77;7.47;;;;;;;;;;5052643;28;20048;-73
2023/01/22 13:55:19;;;;;;;12.98;7.60;;;;;;;;;;5054485;28;20398;-72
2023/01/22 13:57:46;;;;;;;12.40;7.10;;;;;;;;;;5053061;28;20036;-73
2023/01/22 14:00:31;;;;;;;14.65;7.32;;;;;;;;;;5052784;28;20041;-73
2023/01/22 14:02:58;;;;;;;12.35;7.18;;;;;;;;;;5035954;28;20041;-72
2023/01/22 14:05:25;;;;;;;11.60;7.22;;;;;;;;;;5052911;28;20064;-73
2023/01/22 14:08:02;;;;;;;13.80;7.65;;;;;;;;;;5052431;28;20044;-73
2023/01/22 14:10:28;;;;;;;14.13;7.15;;;;;;;;;;5052718;28;20045;-73
2023/01/22 14:12:58;;;;;;;14.20;7.30;;;;;;;;;;5036090;28;20509;-73
2023/01/22 14:15:24;;;;;;;12.80;6.97;;;;;;;;;;5052672;28;20143;-73
2023/01/22 14:17:50;;;;;;;12.38;7.05;;;;;;;;;;5052918;28;20091;-72
2023/01/22 14:20:17;;;;;;;13.57;7.25;;;;;;;;;;5052348;28;20060;-73
2023/01/22 14:22:43;;;;;;;13.65;7.55;;;;;;;;;;5052677;28;20048;-72
2023/01/22 14:25:09;;;;;;;14.45;7.43;;;;;;;;;;5035515;28;20106;-72
2023/01/22 14:27:41;;;;;;;14.05;7.68;;;;;;;;;;5053865;28;20098;-72
2023/01/22 14:30:08;;;;;;;12.68;7.10;;;;;;;;;;5051872;28;20114;-73
2023/01/22 14:32:34;;;;;;;11.70;6.90;;;;;;;;;;5036026;28;20075;-73
2023/01/22 14:35:00;;;;;;;14.98;7.53;;;;;;;;;;5051322;28;20071;-72
2023/01/22 14:37:27;;;;;;;13.60;6.95;;;;;;;;;;5051968;28;20041;-73
2023/01/22 14:39:53;;;;;;;13.57;6.90;;;;;;;;;;5035639;28;20037;-72
2023/01/22 14:42:19;;;;;;;17.67;6.75;;;;;;;;;;5052061;28;20048;-73
2023/01/22 14:44:45;;;;;;;12.40;6.82;;;;;;;;;;5052192;28;20041;-73
2023/01/22 14:47:11;;;;;;;15.77;7.07;;;;;;;;;;5052091;28;20044;-74